TimeCST,TemperatureF,Dew PointF,Humidity,Sea Level PressureIn,VisibilityMPH,Wind Direction,Wind SpeedMPH,Gust SpeedMPH,PrecipitationIn,Events,Conditions,WindDirDegrees,DateUTC
12:15 AM,26.4,24.4,92,30.37,10.0,West,5.8,-,N/A,,Clear,280,2012-12-30 06:15:00
12:35 AM,26.1,24.3,93,30.37,10.0,West,3.5,-,N/A,,Clear,270,2012-12-30 06:35:00
7:35 AM,21.7,21.4,99,30.48,5.0,Calm,Calm,-,N/A,,Clear,0,2012-12-30 13:35:00
7:55 AM,24.1,23.4,97,30.48,5.0,Calm,Calm,-,N/A,,Clear,0,2012-12-30 13:55:00
8:15 AM,25.5,24.1,94,30.50,7.0,SW,5.8,-,N/A,,Clear,220,2012-12-30 14:15:00
8:35 AM,26.6,25.0,94,30.51,7.0,SW,6.9,-,N/A,,Clear,230,2012-12-30 14:35:00
8:55 AM,28.0,25.7,91,30.51,7.0,SSW,5.8,-,N/A,,Clear,210,2012-12-30 14:55:00
9:15 AM,29.3,25.3,85,30.52,10.0,SW,6.9,-,N/A,,Clear,220,2012-12-30 15:15:00
9:35 AM,30.4,24.8,80,30.53,10.0,SW,9.2,-,N/A,,Clear,220,2012-12-30 15:35:00
9:55 AM,31.1,24.8,77,30.54,10.0,SSW,6.9,-,N/A,,Clear,210,2012-12-30 15:55:00
10:15 AM,31.8,24.6,75,30.54,10.0,SSW,6.9,-,N/A,,Clear,210,2012-12-30 16:15:00
10:35 AM,32.4,25.0,74,30.53,10.0,SSW,6.9,-,N/A,,Clear,210,2012-12-30 16:35:00
10:55 AM,33.6,25.7,73,30.51,10.0,SSW,5.8,-,N/A,,Clear,200,2012-12-30 16:55:00
11:15 AM,33.8,25.3,71,30.50,10.0,SW,5.8,-,N/A,,Clear,220,2012-12-30 17:15:00
11:35 AM,34.7,26.2,71,30.49,10.0,South,5.8,-,N/A,,Clear,170,2012-12-30 17:35:00
11:55 AM,35.2,25.9,69,30.47,10.0,Calm,Calm,-,N/A,,Clear,0,2012-12-30 17:55:00
12:15 PM,35.6,25.7,67,30.44,10.0,Calm,Calm,-,N/A,,Clear,0,2012-12-30 18:15:00
12:35 PM,36.7,25.9,65,30.42,10.0,SSE,4.6,-,N/A,,Clear,150,2012-12-30 18:35:00
12:55 PM,37.0,27.0,67,30.42,10.0,South,4.6,-,N/A,,Clear,170,2012-12-30 18:55:00
1:15 PM,37.9,27.0,65,30.43,10.0,SSW,4.6,-,N/A,,Clear,200,2012-12-30 19:15:00
1:35 PM,38.5,27.5,65,30.44,10.0,SW,9.2,-,N/A,,Clear,230,2012-12-30 19:35:00
1:55 PM,38.8,28.2,66,30.44,10.0,WSW,8.1,-,N/A,,Clear,250,2012-12-30 19:55:00
2:15 PM,38.8,28.0,65,30.44,10.0,SW,6.9,-,N/A,,Clear,220,2012-12-30 20:15:00
2:35 PM,39.6,28.8,65,30.44,10.0,SW,8.1,-,N/A,,Clear,220,2012-12-30 20:35:00
2:55 PM,39.7,29.7,67,30.44,10.0,SW,4.6,-,N/A,,Clear,230,2012-12-30 20:55:00
3:15 PM,39.4,28.4,65,30.44,10.0,WSW,4.6,-,N/A,,Clear,240,2012-12-30 21:15:00
3:35 PM,39.2,29.3,68,30.44,10.0,SW,5.8,-,N/A,,Clear,230,2012-12-30 21:35:00
3:55 PM,38.8,28.6,67,30.43,10.0,SSW,3.5,-,N/A,,Clear,200,2012-12-30 21:55:00
4:15 PM,37.6,28.9,71,30.42,10.0,SSW,4.6,-,N/A,,Clear,200,2012-12-30 22:15:00
4:35 PM,37.0,28.9,73,30.42,10.0,SSW,4.6,-,N/A,,Clear,200,2012-12-30 22:35:00
4:55 PM,36.5,28.8,74,30.41,10.0,South,3.5,-,N/A,,Clear,190,2012-12-30 22:55:00
5:15 PM,36.0,28.4,74,30.42,10.0,South,3.5,-,N/A,,Clear,180,2012-12-30 23:15:00
5:35 PM,36.0,28.2,73,30.42,10.0,South,3.5,-,N/A,,Clear,190,2012-12-30 23:35:00
5:55 PM,34.3,28.9,81,30.41,10.0,Calm,Calm,-,N/A,,Clear,0,2012-12-30 23:55:00
6:15 PM,34.2,28.6,80,30.41,10.0,Calm,Calm,-,N/A,,Clear,0,2012-12-31 00:15:00
6:35 PM,32.9,28.8,85,30.41,10.0,Calm,Calm,-,N/A,,Clear,0,2012-12-31 00:35:00
6:55 PM,33.1,28.8,84,30.41,10.0,South,3.5,-,N/A,,Clear,180,2012-12-31 00:55:00
7:15 PM,32.2,29.1,88,30.40,10.0,Calm,Calm,-,N/A,,Clear,0,2012-12-31 01:15:00
7:35 PM,32.5,28.9,87,30.40,10.0,South,4.6,-,N/A,,Clear,190,2012-12-31 01:35:00
7:55 PM,32.9,28.8,85,30.39,10.0,SSW,4.6,-,N/A,,Clear,200,2012-12-31 01:55:00
8:15 PM,32.9,28.6,84,30.39,10.0,SSW,4.6,-,N/A,,Clear,200,2012-12-31 02:15:00
8:35 PM,33.1,28.8,84,30.39,10.0,South,3.5,-,N/A,,Clear,180,2012-12-31 02:35:00
8:55 PM,32.0,28.8,88,30.39,10.0,South,3.5,-,N/A,,Clear,170,2012-12-31 02:55:00
9:15 PM,32.0,29.3,90,30.39,10.0,Calm,Calm,-,N/A,,Clear,0,2012-12-31 03:15:00
9:35 PM,32.0,28.9,88,30.38,10.0,Calm,Calm,-,N/A,,Clear,0,2012-12-31 03:35:00
9:55 PM,32.0,29.1,89,30.38,10.0,Calm,Calm,-,N/A,,Clear,0,2012-12-31 03:55:00
10:15 PM,32.0,29.1,89,30.37,10.0,SSE,4.6,-,N/A,,Clear,160,2012-12-31 04:15:00
10:35 PM,32.4,28.8,87,30.36,10.0,Calm,Calm,-,N/A,,Clear,0,2012-12-31 04:35:00
10:55 PM,32.4,28.6,86,30.35,10.0,South,3.5,-,N/A,,Clear,180,2012-12-31 04:55:00
11:15 PM,32.2,28.6,87,30.34,10.0,South,6.9,-,N/A,,Clear,180,2012-12-31 05:15:00
11:35 PM,32.7,28.4,84,30.34,10.0,SSW,4.6,-,N/A,,Clear,200,2012-12-31 05:35:00
11:55 PM,32.0,28.0,85,30.34,10.0,South,4.6,-,N/A,,Clear,190,2012-12-31 05:55:00